Time;durP1;ratioP1;P1;durP2;ratioP2;P2;SDS_P1;SDS_P2;PMS_P1;PMS_P2;Temp;Humidity;BMP_temperature;BMP_pressure;BME280_temperature;BME280_humidity;BME280_pressure;Samples;Min_cycle;Max_cycle;Signal;HPM_P1;HPM_P2
2023/07/11 00:00:20;;;;;;;;;21.33;20.00;;;;;;;;6490740;31;8837;-53
2023/07/11 00:06:22;;;;;;;;;19.33;19.33;;;;;;;;6488987;46;8947;-52
2023/07/11 00:12:29;;;;;;;;;24.33;21.00;;;;;;;;6490108;39;9003;-53
2023/07/11 00:18:31;;;;;;;;;19.67;18.33;;;;;;;;6489011;39;9011;-54
2023/07/11 00:24:33;;;;;;;;;21.00;19.67;;;;;;;;6490183;39;8849;-52
2023/07/11 00:30:35;;;;;;;;;24.67;22.33;;;;;;;;6489661;39;8873;-53
2023/07/11 00:36:38;;;;;;;;;19.33;19.00;;;;;;;;6488372;39;8947;-52
2023/07/11 00:42:41;;;;;;;;;18.67;18.67;;;;;;;;6488605;39;8899;-52
2023/07/11 00:48:48;;;;;;;;;22.33;21.67;;;;;;;;6489991;31;8983;-53
2023/07/11 00:54:57;;;;;;;;;22.33;22.33;;;;;;;;6490104;31;8896;-54
2023/07/11 01:01:02;;;;;;;;;20.33;20.00;;;;;;;;6489224;46;8935;-54
2023/07/11 01:07:09;;;;;;;;;21.00;19.33;;;;;;;;6489389;46;8921;-54
2023/07/11 01:13:11;;;;;;;;;22.33;22.33;;;;;;;;6488389;31;8913;-53
2023/07/11 01:19:13;;;;;;;;;19.33;19.33;;;;;;;;6489736;31;8845;-54
2023/07/11 01:25:16;;;;;;;;;22.67;21.00;;;;;;;;6489214;39;8983;-53
2023/07/11 01:31:19;;;;;;;;;22.50;21.50;;;;;;;;6489747;39;9027;-53
2023/07/11 01:37:21;;;;;;;;;21.33;21.00;;;;;;;;6487548;31;9069;-53
2023/07/11 01:43:27;;;;;;;;;28.00;25.67;;;;;;;;6488706;46;8929;-55
2023/07/11 01:49:31;;;;;;;;;26.00;23.67;;;;;;;;6489092;46;8928;-52
2023/07/11 01:55:33;;;;;;;;;25.67;22.00;;;;;;;;6488645;46;8897;-53
2023/07/11 02:01:35;;;;;;;;;26.33;22.67;;;;;;;;6487234;39;8833;-54
2023/07/11 02:07:38;;;;;;;;;24.33;22.33;;;;;;;;6488739;39;8896;-55
2023/07/11 02:13:40;;;;;;;;;24.00;22.67;;;;;;;;6488382;39;8905;-53
2023/07/11 02:19:46;;;;;;;;;24.00;24.00;;;;;;;;6487281;46;8909;-52
2023/07/11 02:25:53;;;;;;;;;28.33;27.00;;;;;;;;6488969;39;8921;-53
2023/07/11 02:31:55;;;;;;;;;25.67;24.33;;;;;;;;6488008;36;9907;-54
2023/07/11 02:38:02;;;;;;;;;26.67;25.67;;;;;;;;6488283;39;8828;-56
2023/07/11 02:44:04;;;;;;;;;26.00;23.50;;;;;;;;6488203;46;8894;-54
2023/07/11 02:50:07;;;;;;;;;26.67;26.67;;;;;;;;6487757;39;9042;-52
2023/07/11 02:56:09;;;;;;;;;28.67;28.67;;;;;;;;6488699;39;8900;-53
2023/07/11 03:02:12;;;;;;;;;25.67;25.67;;;;;;;;6488291;47;8974;-53
2023/07/11 03:08:15;;;;;;;;;21.67;19.33;;;;;;;;6488378;39;8911;-50
2023/07/11 03:14:19;;;;;;;;;29.00;27.33;;;;;;;;6488754;39;8978;-53
2023/07/11 03:20:21;;;;;;;;;30.00;24.00;;;;;;;;6487749;39;8866;-53
2023/07/11 03:26:23;;;;;;;;;29.00;27.67;;;;;;;;6488440;39;8953;-54
2023/07/11 03:32:26;;;;;;;;;29.00;28.67;;;;;;;;6487425;39;9500;-53
2023/07/11 03:38:28;;;;;;;;;31.33;29.00;;;;;;;;6488144;39;8879;-54
2023/07/11 03:44:31;;;;;;;;;30.00;30.00;;;;;;;;6487806;39;8887;-54
2023/07/11 03:50:33;;;;;;;;;26.33;25.33;;;;;;;;6505518;36;8913;-54
2023/07/11 03:56:35;;;;;;;;;28.67;27.00;;;;;;;;6488013;39;8916;-53
2023/07/11 04:02:37;;;;;;;;;25.00;25.00;;;;;;;;6465446;46;8959;-54
2023/07/11 04:08:41;;;;;;;;;25.00;23.33;;;;;;;;6491581;46;8893;-53
2023/07/11 04:14:44;;;;;;;;;29.00;29.00;;;;;;;;6492486;31;9762;-52
